Time;durP1;ratioP1;P1;durP2;ratioP2;P2;SDS_P1;SDS_P2;PMS_P1;PMS_P2;Temp;Humidity;BMP_temperature;BMP_pressure;BME280_temperature;BME280_humidity;BME280_pressure;Samples;Min_cycle;Max_cycle;Signal;HPM_P1;HPM_P2
2021/05/25 00:01:56;;;;;;;3.33;1.80;;;10.60;99.90;;;;;;5093913;28;20025;-63
2021/05/25 00:04:22;;;;;;;4.60;1.50;;;10.60;99.90;;;;;;5093888;28;20079;-63
2021/05/25 00:06:47;;;;;;;2.30;1.55;;;10.60;99.90;;;;;;5094041;28;20036;-63
2021/05/25 00:09:14;;;;;;;4.63;1.33;;;10.60;99.90;;;;;;5094397;28;20031;-64
2021/05/25 00:11:40;;;;;;;2.65;1.50;;;10.60;99.90;;;;;;5092919;28;20016;-63
2021/05/25 00:14:06;;;;;;;2.65;1.33;;;10.60;99.90;;;;;;5094031;28;20023;-63
2021/05/25 00:16:32;;;;;;;2.67;1.70;;;10.60;99.90;;;;;;5093730;28;20024;-63
2021/05/25 00:18:58;;;;;;;2.58;1.27;;;10.50;99.90;;;;;;5093950;28;20546;-63
2021/05/25 00:21:24;;;;;;;1.38;1.27;;;10.40;99.90;;;;;;5094247;28;20020;-63
2021/05/25 00:23:50;;;;;;;2.17;1.48;;;10.40;99.90;;;;;;5093039;28;20364;-63
2021/05/25 00:26:16;;;;;;;2.03;1.65;;;10.40;99.90;;;;;;5093381;28;20052;-64
2021/05/25 00:28:41;;;;;;;13.88;2.00;;;10.30;99.90;;;;;;5094125;28;20074;-63
2021/05/25 00:31:07;;;;;;;2.15;1.58;;;10.30;99.90;;;;;;5094119;28;20111;-63
2021/05/25 00:33:33;;;;;;;4.82;1.67;;;10.30;99.90;;;;;;5094144;28;20024;-63
2021/05/25 00:35:59;;;;;;;2.42;1.55;;;10.30;99.90;;;;;;5093800;28;20444;-63
2021/05/25 00:38:25;;;;;;;2.30;1.50;;;10.30;99.90;;;;;;5094083;28;20480;-63
2021/05/25 00:40:50;;;;;;;3.38;1.85;;;10.30;99.90;;;;;;5094041;28;20055;-64
2021/05/25 00:43:16;;;;;;;2.13;1.90;;;10.30;99.90;;;;;;5094035;28;20379;-63
2021/05/25 00:45:41;;;;;;;3.08;1.98;;;10.20;99.90;;;;;;5092228;28;20114;-63
2021/05/25 00:48:07;;;;;;;2.42;1.58;;;10.30;99.90;;;;;;5094619;28;20028;-64
2021/05/25 00:50:33;;;;;;;2.13;1.50;;;10.30;99.90;;;;;;5098106;28;20020;-64
2021/05/25 00:53:01;;;;;;;3.47;1.67;;;10.20;99.90;;;;;;5097499;28;20024;-64
2021/05/25 00:55:29;;;;;;;4.93;1.58;;;10.30;99.90;;;;;;5098015;28;20442;-63
2021/05/25 00:57:57;;;;;;;3.13;1.52;;;10.30;99.90;;;;;;5097965;28;20024;-63
2021/05/25 01:00:29;;;;;;;2.70;1.52;;;10.20;99.90;;;;;;5097923;28;20024;-64
2021/05/25 01:02:56;;;;;;;2.67;1.35;;;10.30;99.90;;;;;;5096743;28;20028;-64
2021/05/25 01:05:22;;;;;;;2.17;1.30;;;10.30;99.90;;;;;;5097274;28;20028;-63
2021/05/25 01:07:48;;;;;;;2.60;1.20;;;10.20;99.90;;;;;;5097397;28;20541;-63
2021/05/25 01:10:17;;;;;;;2.20;0.98;;;10.20;99.90;;;;;;5097415;28;20052;-63
2021/05/25 01:12:53;;;;;;;2.17;1.17;;;10.20;99.90;;;;;;5097449;28;20376;-63
2021/05/25 01:15:19;;;;;;;1.38;1.08;;;10.20;99.90;;;;;;5097093;28;20380;-63
2021/05/25 01:17:45;;;;;;;3.53;1.42;;;10.10;99.90;;;;;;5097316;28;20457;-63
2021/05/25 01:20:12;;;;;;;6.15;1.42;;;10.10;99.90;;;;;;5095743;28;20080;-63
2021/05/25 01:22:37;;;;;;;1.13;0.93;;;10.10;99.90;;;;;;5097465;28;20084;-63
2021/05/25 01:25:12;;;;;;;2.72;0.80;;;10.20;99.90;;;;;;5096003;28;20028;-63
2021/05/25 01:27:38;;;;;;;4.60;1.27;;;10.10;99.90;;;;;;5096724;28;20059;-63
2021/05/25 01:30:06;;;;;;;2.78;1.10;;;10.20;99.90;;;;;;5097034;28;20024;-64
2021/05/25 01:32:32;;;;;;;2.22;0.80;;;10.10;99.90;;;;;;5097313;28;20016;-64
2021/05/25 01:34:57;;;;;;;1.83;0.98;;;10.10;99.90;;;;;;5096978;28;20376;-64
2021/05/25 01:37:23;;;;;;;2.20;1.35;;;10.10;99.90;;;;;;5096911;28;20027;-63
2021/05/25 01:39:53;;;;;;;8.45;1.15;;;10.10;99.90;;;;;;5097152;28;20369;-63
2021/05/25 01:42:19;;;;;;;0.98;0.80;;;10.10;99.90;;;;;;5096584;28;20443;-63
2021/05/25 01:44:44;;;;;;;2.22;0.80;;;10.10;99.90;;;;;;5096499;28;20077;-63
2021/05/25 01:47:10;;;;;;;2.60;0.80;;;10.00;99.90;;;;;;5096947;28;20119;-63
2021/05/25 01:49:35;;;;;;;3.33;0.93;;;10.10;99.90;;;;;;5096997;28;20440;-63
2021/05/25 01:52:01;;;;;;;3.15;1.10;;;10.00;99.90;;;;;;5096905;28;20038;-63
2021/05/25 01:54:27;;;;;;;1.38;1.05;;;10.00;99.90;;;;;;5096363;28;20047;-63
2021/05/25 01:56:52;;;;;;;1.42;1.00;;;10.00;99.90;;;;;;5096529;28;20024;-64
2021/05/25 01:59:18;;;;;;;2.22;1.20;;;10.00;99.90;;;;;;5096300;28;20027;-63
2021/05/25 02:01:44;;;;;;;2.97;0.90;;;10.10;99.90;;;;;;5096749;28;20032;-63
2021/05/25 02:04:10;;;;;;;1.00;0.90;;;10.00;99.90;;;;;;5096686;28;20020;-63
2021/05/25 02:06:35;;;;;;;1.65;1.13;;;10.00;99.90;;;;;;5096585;28;20378;-63
2021/05/25 02:09:01;;;;;;;2.10;1.10;;;10.00;99.90;;;;;;5096322;28;20021;-64
2021/05/25 02:11:26;;;;;;;2.85;0.95;;;9.90;99.90;;;;;;5096300;28;20462;-63
2021/05/25 02:13:52;;;;;;;1.75;1.10;;;9.90;99.90;;;;;;5096498;28;20028;-63
2021/05/25 02:16:18;;;;;;;4.78;1.60;;;9.90;99.90;;;;;;5096451;28;20035;-64
2021/05/25 02:18:47;;;;;;;4.43;1.10;;;9.80;99.90;;;;;;5096427;28;20035;-63
2021/05/25 02:21:16;;;;;;;1.42;1.08;;;9.90;99.90;;;;;;5095803;28;20012;-63
2021/05/25 02:23:43;;;;;;;3.67;1.17;;;10.00;99.90;;;;;;5096288;28;20031;-63
2021/05/25 02:26:08;;;;;;;2.03;1.30;;;9.90;99.90;;;;;;5095940;28;20736;-64
2021/05/25 02:28:34;;;;;;;1.30;1.10;;;10.00;99.90;;;;;;5096145;28;20030;-63
2021/05/25 02:31:00;;;;;;;1.90;1.23;;;10.00;99.90;;;;;;5096150;28;20354;-63
2021/05/25 02:33:27;;;;;;;2.08;1.17;;;10.00;99.90;;;;;;5096130;28;20355;-63
2021/05/25 02:35:55;;;;;;;2.13;1.10;;;9.90;99.90;;;;;;5096082;28;20023;-63
2021/05/25 02:38:23;;;;;;;2.85;1.33;;;9.90;99.90;;;;;;5096045;28;20030;-63
2021/05/25 02:40:50;;;;;;;3.20;1.17;;;9.90;99.90;;;;;;5094717;28;20056;-63
2021/05/25 02:43:18;;;;;;;1.80;1.23;;;9.90;99.90;;;;;;5095667;28;20023;-64
2021/05/25 02:45:44;;;;;;;1.58;1.20;;;9.90;99.90;;;;;;5095632;28;20035;-63
2021/05/25 02:48:10;;;;;;;1.13;0.90;;;9.90;99.90;;;;;;5095475;28;20024;-63
2021/05/25 02:50:36;;;;;;;4.20;1.30;;;10.00;99.90;;;;;;5095508;28;20113;-63
2021/05/25 02:53:02;;;;;;;4.50;1.08;;;10.00;99.90;;;;;;5095481;28;20157;-63
2021/05/25 02:55:31;;;;;;;1.80;1.30;;;10.00;99.90;;;;;;5094519;28;20031;-63
2021/05/25 02:57:58;;;;;;;3.70;1.20;;;10.00;99.90;;;;;;5095383;28;20031;-63
2021/05/25 03:00:27;;;;;;;6.72;1.50;;;10.00;99.90;;;;;;5095332;28;20087;-63
2021/05/25 03:02:54;;;;;;;3.58;1.30;;;10.00;99.90;;;;;;5095540;28;20033;-63
2021/05/25 03:05:23;;;;;;;2.35;1.10;;;10.00;99.90;;;;;;5095495;28;20024;-63
2021/05/25 03:07:51;;;;;;;2.08;1.45;;;10.10;99.90;;;;;;5094821;28;20028;-63
2021/05/25 03:10:19;;;;;;;3.85;1.45;;;10.10;99.90;;;;;;5095099;28;20020;-63
2021/05/25 03:12:45;;;;;;;2.70;1.20;;;10.10;99.90;;;;;;5094921;28;20028;-63
2021/05/25 03:15:14;;;;;;;1.80;1.00;;;10.10;99.90;;;;;;5095314;28;20070;-71
2021/05/25 03:17:40;;;;;;;6.25;1.20;;;10.00;99.90;;;;;;5094965;28;20058;-71
2021/05/25 03:20:07;;;;;;;2.10;1.20;;;10.10;99.90;;;;;;5094950;28;20034;-71
2021/05/25 03:22:33;;;;;;;1.98;1.38;;;10.00;99.90;;;;;;5095180;28;20484;-71
2021/05/25 03:24:59;;;;;;;3.47;1.40;;;10.00;99.90;;;;;;5094817;28;20115;-71
2021/05/25 03:27:25;;;;;;;1.58;1.15;;;10.00;99.90;;;;;;5094312;28;20074;-71
2021/05/25 03:29:52;;;;;;;2.00;1.00;;;10.00;99.90;;;;;;5095017;28;20403;-71
2021/05/25 03:32:17;;;;;;;2.47;1.10;;;10.00;99.90;;;;;;5094453;28;20073;-71
2021/05/25 03:34:43;;;;;;;3.80;1.00;;;10.00;99.90;;;;;;5094950;28;20016;-71
2021/05/25 03:37:09;;;;;;;2.28;1.15;;;9.90;99.90;;;;;;5094620;28;20103;-71
2021/05/25 03:39:35;;;;;;;2.30;0.90;;;10.00;99.90;;;;;;5093047;28;20027;-71
2021/05/25 03:42:00;;;;;;;1.35;0.93;;;10.00;99.90;;;;;;5094803;28;20043;-71
2021/05/25 03:44:27;;;;;;;2.90;1.13;;;10.00;99.90;;;;;;5094740;28;20031;-71
2021/05/25 03:46:53;;;;;;;3.25;1.00;;;9.90;99.90;;;;;;5094396;28;20020;-71
2021/05/25 03:49:19;;;;;;;5.07;1.10;;;9.90;99.90;;;;;;5093287;28;20016;-71
2021/05/25 03:51:45;;;;;;;1.33;0.95;;;9.90;99.90;;;;;;5093209;28;20113;-71
2021/05/25 03:54:16;;;;;;;1.75;0.80;;;9.90;99.90;;;;;;5094627;28;20028;-71
2021/05/25 03:57:24;;;;;;;1.98;0.90;;;9.90;99.90;;;;;;5094290;28;20051;-71
2021/05/25 03:59:27;;;;;;;2.85;1.08;;;9.90;99.90;;;;;;5093872;28;20028;-71
2021/05/25 04:01:52;;;;;;;4.15;1.42;;;9.90;99.90;;;;;;5094484;28;20487;-71
2021/05/25 04:04:18;;;;;;;4.22;0.93;;;9.90;99.90;;;;;;5093861;28;20040;-71
2021/05/25 04:06:44;;;;;;;1.83;0.90;;;9.90;99.90;;;;;;5094085;28;20052;-71
2021/05/25 04:09:09;;;;;;;2.15;1.08;;;9.90;99.90;;;;;;5094424;28;20458;-71
2021/05/25 04:11:35;;;;;;;1.73;0.93;;;9.90;99.90;;;;;;5094401;28;20051;-71
2021/05/25 04:14:02;;;;;;;3.20;1.27;;;10.00;99.90;;;;;;5094349;28;20023;-71
2021/05/25 04:16:28;;;;;;;4.13;1.27;;;9.90;99.90;;;;;;5094309;28;20496;-71
2021/05/25 04:18:53;;;;;;;2.15;1.00;;;9.90;99.90;;;;;;5094026;28;20012;-71
2021/05/25 04:21:19;;;;;;;2.85;1.02;;;9.90;99.90;;;;;;5092530;28;20066;-71
2021/05/25 04:23:44;;;;;;;5.15;1.45;;;9.90;99.90;;;;;;5094056;28;20031;-71
2021/05/25 04:26:10;;;;;;;2.10;1.00;;;9.90;99.90;;;;;;5093868;28;20362;-71
2021/05/25 04:28:37;;;;;;;3.10;1.17;;;10.00;99.90;;;;;;5093862;28;20020;-68
2021/05/25 04:31:02;;;;;;;2.38;0.90;;;9.90;99.90;;;;;;5094141;28;20019;-68
2021/05/25 04:33:28;;;;;;;4.90;1.35;;;9.90;99.90;;;;;;5094163;28;20032;-68
2021/05/25 04:35:54;;;;;;;3.17;1.02;;;9.90;99.90;;;;;;5093950;28;20024;-68
2021/05/25 04:38:20;;;;;;;2.00;0.90;;;9.80;99.90;;;;;;5093825;28;20024;-68
2021/05/25 04:40:46;;;;;;;4.55;1.38;;;9.70;99.90;;;;;;5093806;28;20107;-68
2021/05/25 04:43:12;;;;;;;2.20;1.10;;;9.60;99.90;;;;;;5092665;28;20024;-68
2021/05/25 04:45:39;;;;;;;1.58;1.00;;;9.60;99.90;;;;;;5093328;28;20081;-68
2021/05/25 04:48:06;;;;;;;5.50;1.10;;;9.50;99.90;;;;;;5093925;28;20392;-68
2021/05/25 04:50:32;;;;;;;3.00;0.88;;;9.40;99.90;;;;;;5093985;28;20107;-68
2021/05/25 04:52:58;;;;;;;1.88;1.17;;;9.30;99.90;;;;;;5093395;28;20362;-68
2021/05/25 04:55:24;;;;;;;3.78;1.50;;;9.30;99.90;;;;;;5093917;28;20093;-68
2021/05/25 04:57:50;;;;;;;2.10;1.10;;;9.40;99.90;;;;;;5093889;28;20524;-68
2021/05/25 05:00:19;;;;;;;3.03;1.27;;;9.40;99.90;;;;;;5093864;28;20024;-68
2021/05/25 05:02:44;;;;;;;2.92;1.10;;;9.50;99.90;;;;;;5093867;28;20021;-68
2021/05/25 05:05:11;;;;;;;1.50;1.00;;;9.50;99.90;;;;;;5091990;28;20080;-68
2021/05/25 05:07:36;;;;;;;1.40;1.00;;;9.60;99.90;;;;;;5093467;28;20436;-68
2021/05/25 05:10:04;;;;;;;1.90;1.00;;;10.00;99.90;;;;;;5093797;28;20044;-68
2021/05/25 05:12:29;;;;;;;2.53;0.95;;;10.50;99.90;;;;;;5093173;28;20025;-68
2021/05/25 05:14:55;;;;;;;6.68;1.55;;;10.80;99.90;;;;;;5092267;28;20032;-68
2021/05/25 05:17:24;;;;;;;2.67;1.05;;;10.80;99.90;;;;;;5093671;28;20104;-68
2021/05/25 05:19:50;;;;;;;4.85;1.45;;;10.50;99.90;;;;;;5093127;28;20020;-68
2021/05/25 05:22:16;;;;;;;3.15;1.40;;;10.20;99.90;;;;;;5093685;28;20107;-68
2021/05/25 05:24:41;;;;;;;2.70;1.02;;;10.10;99.90;;;;;;5093336;28;20034;-68
2021/05/25 05:27:07;;;;;;;3.08;1.27;;;10.00;99.90;;;;;;5093102;28;20051;-68
2021/05/25 05:29:33;;;;;;;2.90;1.20;;;9.90;99.90;;;;;;5091825;28;20073;-68
2021/05/25 05:31:58;;;;;;;3.05;0.90;;;9.80;99.90;;;;;;5093041;28;20069;-68
2021/05/25 05:34:24;;;;;;;2.63;1.52;;;9.90;99.90;;;;;;5094585;28;20023;-68
2021/05/25 05:36:49;;;;;;;1.20;0.82;;;10.00;99.90;;;;;;5097245;28;20113;-68
2021/05/25 05:39:15;;;;;;;1.05;0.90;;;9.90;99.90;;;;;;5096636;28;20028;-68
2021/05/25 05:41:41;;;;;;;1.38;0.88;;;9.80;99.90;;;;;;5095947;28;20035;-68
2021/05/25 05:44:06;;;;;;;2.00;0.98;;;9.80;99.90;;;;;;5096907;28;20031;-69
2021/05/25 05:46:32;;;;;;;1.33;0.80;;;9.80;99.90;;;;;;5096823;28;20055;-68
2021/05/25 05:48:57;;;;;;;2.47;0.70;;;9.90;99.90;;;;;;5095419;28;20113;-68
2021/05/25 05:51:23;;;;;;;0.80;0.70;;;9.90;99.90;;;;;;5095749;28;20050;-68
2021/05/25 05:53:50;;;;;;;1.10;0.88;;;10.00;99.90;;;;;;5096807;28;20048;-68
2021/05/25 05:56:17;;;;;;;1.90;0.85;;;10.00;99.90;;;;;;5095163;28;20110;-68
2021/05/25 05:58:43;;;;;;;1.38;0.90;;;10.00;99.90;;;;;;5096115;28;20473;-68
2021/05/25 06:01:10;;;;;;;1.30;1.00;;;9.80;99.90;;;;;;5094867;28;20032;-68
2021/05/25 06:03:35;;;;;;;1.50;1.00;;;9.70;99.90;;;;;;5094625;28;20435;-68
2021/05/25 06:06:01;;;;;;;1.90;0.95;;;9.70;99.90;;;;;;5094554;28;20085;-68
2021/05/25 06:08:26;;;;;;;1.30;1.10;;;9.90;99.90;;;;;;5094993;28;20036;-68
2021/05/25 06:10:52;;;;;;;2.13;0.95;;;10.00;99.90;;;;;;5095348;28;20024;-68
2021/05/25 06:13:20;;;;;;;1.77;1.00;;;10.40;99.90;;;;;;5095638;28;20070;-68
2021/05/25 06:15:46;;;;;;;0.77;0.77;;;10.50;99.90;;;;;;5095335;28;20031;-68
2021/05/25 06:18:13;;;;;;;1.00;0.90;;;10.70;99.90;;;;;;5095214;28;20377;-68
2021/05/25 06:20:38;;;;;;;1.58;0.75;;;11.50;99.90;;;;;;5093543;28;20024;-68
2021/05/25 06:23:04;;;;;;;1.85;0.85;;;12.10;99.90;;;;;;5095099;28;20043;-69
2021/05/25 06:25:29;;;;;;;2.97;0.80;;;12.00;99.90;;;;;;5094103;28;20586;-68
2021/05/25 06:27:56;;;;;;;1.55;0.60;;;11.50;99.90;;;;;;5074017;28;20060;-69
2021/05/25 06:30:22;;;;;;;1.67;0.82;;;11.20;99.90;;;;;;5075443;28;20017;-68
2021/05/25 06:32:48;;;;;;;1.50;0.60;;;10.90;99.90;;;;;;5080061;28;20020;-68
2021/05/25 06:35:13;;;;;;;1.23;0.63;;;11.00;99.90;;;;;;5096266;28;20031;-68
2021/05/25 06:37:39;;;;;;;3.92;1.20;;;11.30;99.90;;;;;;5094915;28;20107;-68
2021/05/25 06:40:06;;;;;;;0.60;0.60;;;11.40;99.90;;;;;;5094897;28;20080;-68
2021/05/25 06:42:31;;;;;;;0.82;0.63;;;11.70;99.90;;;;;;5095310;28;20031;-68
2021/05/25 06:44:57;;;;;;;1.45;0.80;;;11.80;99.90;;;;;;5094070;28;20028;-68
2021/05/25 06:47:22;;;;;;;0.80;0.75;;;11.70;99.90;;;;;;5092317;28;20020;-68
2021/05/25 06:49:48;;;;;;;0.80;0.70;;;12.20;99.90;;;;;;5091925;28;20160;-68
2021/05/25 06:52:13;;;;;;;0.80;0.73;;;12.60;99.90;;;;;;5094574;28;20039;-68
2021/05/25 06:54:40;;;;;;;2.65;1.10;;;12.90;99.90;;;;;;5094926;28;20028;-68
2021/05/25 06:57:06;;;;;;;1.55;0.80;;;12.30;99.90;;;;;;5094602;28;20504;-68
2021/05/25 06:59:33;;;;;;;1.98;0.93;;;11.80;99.90;;;;;;5093630;28;20056;-68
2021/05/25 07:01:59;;;;;;;2.40;1.33;;;11.60;99.90;;;;;;5091201;28;20040;-68
2021/05/25 07:04:24;;;;;;;4.35;0.95;;;11.80;99.90;;;;;;5092003;28;20028;-68
2021/05/25 07:06:51;;;;;;;2.05;1.23;;;11.50;99.90;;;;;;5091780;28;20024;-68
2021/05/25 07:09:16;;;;;;;3.20;1.00;;;12.00;99.90;;;;;;5092279;28;20480;-68
2021/05/25 07:11:42;;;;;;;3.42;1.08;;;12.20;99.90;;;;;;5092931;28;20027;-68
2021/05/25 07:14:07;;;;;;;2.97;0.80;;;13.50;99.90;;;;;;5090264;28;20037;-68
2021/05/25 07:16:34;;;;;;;3.53;1.10;;;13.80;99.90;;;;;;5092010;28;20024;-68
2021/05/25 07:19:00;;;;;;;2.13;1.05;;;13.90;99.90;;;;;;5092948;28;20107;-68
2021/05/25 07:21:26;;;;;;;2.08;0.80;;;13.60;99.90;;;;;;5092007;28;20440;-69
2021/05/25 07:23:51;;;;;;;2.67;1.10;;;13.60;99.90;;;;;;5094339;28;20020;-69
2021/05/25 07:26:17;;;;;;;2.10;1.00;;;13.50;99.90;;;;;;5094106;28;20514;-69
2021/05/25 07:28:43;;;;;;;2.53;1.25;;;13.70;99.90;;;;;;5094300;28;20031;-69
2021/05/25 07:31:08;;;;;;;3.53;1.17;;;13.60;99.90;;;;;;5093720;28;20059;-69
2021/05/25 07:33:34;;;;;;;1.00;0.88;;;13.10;99.90;;;;;;5093348;28;20103;-69
2021/05/25 07:36:00;;;;;;;4.35;0.80;;;12.50;99.90;;;;;;5093438;28;20024;-68
2021/05/25 07:38:25;;;;;;;1.35;1.00;;;12.10;99.90;;;;;;5093353;28;20361;-68
2021/05/25 07:40:51;;;;;;;4.25;1.20;;;11.90;99.90;;;;;;5093218;28;20048;-68
2021/05/25 07:43:17;;;;;;;9.07;4.25;;;11.70;99.90;;;;;;5092595;28;20039;-68
2021/05/25 07:45:44;;;;;;;1.48;1.00;;;11.40;99.90;;;;;;5092455;28;20039;-68
2021/05/25 07:48:10;;;;;;;1.90;1.23;;;11.10;99.90;;;;;;5091488;28;20041;-68
2021/05/25 07:50:36;;;;;;;3.92;1.33;;;11.20;99.90;;;;;;5092828;28;20163;-68
2021/05/25 07:53:01;;;;;;;2.13;1.42;;;11.20;99.90;;;;;;5092857;28;20400;-69
2021/05/25 07:55:30;;;;;;;2.28;1.40;;;11.30;99.90;;;;;;5094169;28;20464;-68
2021/05/25 07:57:56;;;;;;;2.67;1.45;;;11.10;99.90;;;;;;5093495;28;20151;-68
2021/05/25 08:00:24;;;;;;;2.30;1.48;;;11.00;99.90;;;;;;5093144;28;20028;-68
2021/05/25 08:02:49;;;;;;;1.95;1.60;;;11.30;99.90;;;;;;5093443;28;20031;-69
2021/05/25 08:05:17;;;;;;;1.98;1.38;;;11.50;99.90;;;;;;5092517;28;20031;-69
2021/05/25 08:07:42;;;;;;;1.83;1.50;;;11.70;99.90;;;;;;5093204;28;20016;-69
2021/05/25 08:10:10;;;;;;;3.92;1.30;;;11.70;99.90;;;;;;5093747;28;20038;-68
2021/05/25 08:12:36;;;;;;;2.15;1.50;;;11.60;99.90;;;;;;5092179;28;20049;-69
2021/05/25 08:15:04;;;;;;;3.65;1.65;;;11.40;99.90;;;;;;5093774;28;20027;-68
2021/05/25 08:20:22;;;;;;;3.47;1.50;;;11.10;99.90;;;;;;5093349;28;20042;-68
2021/05/25 08:22:50;;;;;;;2.60;0.98;;;11.00;99.90;;;;;;5077641;28;20076;-68
2021/05/25 08:25:19;;;;;;;1.90;1.10;;;11.20;99.90;;;;;;5093198;28;20028;-68
2021/05/25 08:27:47;;;;;;;1.05;0.93;;;11.70;99.90;;;;;;5079870;28;20135;-68
2021/05/25 08:30:15;;;;;;;1.75;0.60;;;11.80;99.90;;;;;;5093483;28;20020;-68
2021/05/25 08:32:41;;;;;;;0.85;0.50;;;11.90;99.90;;;;;;5093449;28;20074;-68
2021/05/25 08:35:07;;;;;;;0.75;0.50;;;12.70;99.90;;;;;;5093430;28;20032;-68
2021/05/25 08:37:33;;;;;;;1.55;0.60;;;12.40;99.90;;;;;;5092714;28;20488;-68
2021/05/25 08:40:02;;;;;;;0.80;0.70;;;12.00;99.90;;;;;;5092523;28;20032;-68
2021/05/25 08:42:27;;;;;;;0.85;0.50;;;11.30;99.90;;;;;;5092716;28;20504;-68
2021/05/25 08:44:53;;;;;;;1.52;0.70;;;10.80;99.90;;;;;;5092052;28;20032;-68
2021/05/25 08:47:19;;;;;;;1.85;0.70;;;10.70;99.90;;;;;;5093036;28;20073;-68
2021/05/25 08:49:46;;;;;;;0.50;0.50;;;10.40;99.90;;;;;;5092456;28;20031;-68
2021/05/25 08:52:12;;;;;;;1.67;0.85;;;10.40;99.90;;;;;;5091182;28;20020;-68
2021/05/25 08:54:40;;;;;;;1.05;0.80;;;10.50;99.90;;;;;;5092882;28;20370;-68
2021/05/25 08:57:07;;;;;;;1.58;0.80;;;10.80;99.90;;;;;;5092873;28;20032;-68
2021/05/25 08:59:32;;;;;;;1.52;0.75;;;12.00;99.90;;;;;;5092767;28;20024;-68
2021/05/25 09:01:58;;;;;;;1.25;0.93;;;13.50;99.90;;;;;;5091068;28;20036;-68
2021/05/25 09:04:24;;;;;;;1.15;0.75;;;14.20;99.90;;;;;;5092591;28;20063;-69
2021/05/25 09:06:50;;;;;;;1.40;1.02;;;14.80;99.90;;;;;;5092072;28;20020;-69
2021/05/25 09:09:18;;;;;;;2.78;1.00;;;14.40;99.90;;;;;;5092240;28;20027;-69
2021/05/25 09:12:07;;;;;;;2.53;1.20;;;14.60;99.90;;;;;;5096448;28;20438;-69
2021/05/25 09:14:46;;;;;;;5.18;1.50;;;14.30;99.90;;;;;;5095803;28;20027;-69
2021/05/25 09:17:27;;;;;;;2.63;1.20;;;13.50;99.90;;;;;;5093901;28;20035;-69
2021/05/25 09:19:55;;;;;;;1.48;1.30;;;13.30;99.90;;;;;;5100653;28;20473;-68
2021/05/25 09:22:26;;;;;;;1.95;1.10;;;12.80;99.90;;;;;;5095491;28;20020;-69
2021/05/25 09:24:53;;;;;;;1.40;1.30;;;12.70;99.90;;;;;;5094817;28;20077;-68
2021/05/25 09:30:16;;;;;;;2.13;1.55;;;12.20;99.90;;;;;;5110621;27;20445;-68
2021/05/25 09:32:49;;;;;;;1.30;1.20;;;12.40;99.90;;;;;;5110363;28;20077;-68
2021/05/25 09:35:17;;;;;;;3.17;1.42;;;12.40;99.90;;;;;;5106195;28;20419;-68
2021/05/25 09:37:48;;;;;;;2.95;1.95;;;12.30;99.90;;;;;;5110620;28;20023;-68
2021/05/25 09:40:16;;;;;;;4.47;2.53;;;12.10;99.90;;;;;;5100033;28;20025;-68
2021/05/25 09:42:42;;;;;;;5.40;4.63;;;12.00;99.90;;;;;;5090458;28;20035;-68
2021/05/25 09:45:12;;;;;;;6.50;4.63;;;11.70;99.90;;;;;;5099460;28;20365;-68
2021/05/25 09:47:49;;;;;;;6.55;4.57;;;11.50;99.90;;;;;;5090398;28;20021;-68
2021/05/25 09:50:17;;;;;;;7.30;4.55;;;11.50;99.90;;;;;;5104869;28;20122;-68
2021/05/25 09:53:03;;;;;;;6.85;3.90;;;11.60;99.90;;;;;;5109004;28;20473;-68
2021/05/25 09:55:31;;;;;;;8.02;4.88;;;11.90;99.90;;;;;;5100284;28;20112;-68
2021/05/25 09:57:59;;;;;;;7.65;4.90;;;12.20;99.90;;;;;;5089883;28;20016;-68
2021/05/25 10:00:36;;;;;;;6.25;5.57;;;12.20;99.90;;;;;;5091359;28;20020;-68
2021/05/25 10:03:06;;;;;;;5.63;4.93;;;12.90;99.90;;;;;;5090032;28;20073;-68
2021/05/25 10:05:32;;;;;;;5.43;4.93;;;13.50;99.90;;;;;;5099186;28;20020;-69
2021/05/25 10:08:01;;;;;;;5.95;4.93;;;13.40;99.90;;;;;;5088997;28;20028;-69
2021/05/25 10:10:28;;;;;;;5.15;4.57;;;13.30;99.90;;;;;;5104858;28;20445;-69
2021/05/25 10:12:56;;;;;;;5.63;4.50;;;13.40;99.90;;;;;;5095862;28;20035;-68
2021/05/25 10:15:25;;;;;;;10.38;8.00;;;13.50;99.90;;;;;;5089067;28;20153;-69
2021/05/25 10:20:44;;;;;;;6.00;5.40;;;13.80;99.90;;;;;;5110106;27;20355;-68
2021/05/25 10:23:10;;;;;;;5.63;5.05;;;14.50;99.90;;;;;;5098377;28;20473;-68
2021/05/25 10:25:37;;;;;;;5.18;4.68;;;14.70;99.90;;;;;;5104717;28;20038;-68
2021/05/25 10:28:08;;;;;;;5.85;4.75;;;14.70;99.90;;;;;;5104655;28;20021;-68
2021/05/25 10:30:44;;;;;;;6.35;3.88;;;15.20;99.90;;;;;;5098782;28;20475;-68
2021/05/25 10:36:05;;;;;;;5.28;4.10;;;15.00;99.90;;;;;;5111017;27;20109;-68
2021/05/25 10:38:35;;;;;;;5.03;4.43;;;15.30;99.90;;;;;;5108847;28;20089;-67
2021/05/25 10:41:04;;;;;;;6.13;4.57;;;15.70;99.90;;;;;;5109147;28;20392;-67
2021/05/25 10:43:35;;;;;;;6.30;5.05;;;15.30;99.90;;;;;;5105717;28;20028;-70
2021/05/25 10:46:22;;;;;;;6.57;4.32;;;14.90;99.90;;;;;;5111817;28;20019;-67
2021/05/25 10:49:27;;;;;;;4.80;4.30;;;15.50;99.90;;;;;;5109507;28;20384;-67
2021/05/25 10:57:35;;;;;;;7.45;4.20;;;15.30;99.90;;;;;;5069156;28;20415;-69
2021/05/25 11:00:14;;;;;;;3.60;3.15;;;15.50;99.90;;;;;;5070250;28;20542;-69
2021/05/25 11:02:49;;;;;;;5.38;3.47;;;15.70;99.90;;;;;;5064217;28;20382;-69
2021/05/25 11:05:37;;;;;;;5.47;3.30;;;15.60;99.90;;;;;;5056374;28;20172;-69
2021/05/25 11:08:17;;;;;;;4.53;3.85;;;15.80;99.90;;;;;;5061444;28;20031;-69
2021/05/25 11:10:50;;;;;;;6.78;4.50;;;15.10;99.90;;;;;;5069782;28;20071;-69
2021/05/25 11:16:01;;;;;;;4.40;4.00;;;15.20;99.90;;;;;;5069903;28;20134;-69
2021/05/25 11:18:32;;;;;;;6.85;4.65;;;15.50;99.90;;;;;;5067249;28;20417;-69
2021/05/25 11:21:32;;;;;;;6.47;4.50;;;14.80;99.90;;;;;;5070142;28;20098;-69
2021/05/25 11:23:46;;;;;;;4.00;3.38;;;15.00;99.90;;;;;;5068226;28;20485;-69
2021/05/25 11:26:52;;;;;;;7.82;3.25;;;15.00;99.90;;;;;;5070378;28;20052;-69
2021/05/25 11:29:21;;;;;;;7.38;3.30;;;15.10;99.90;;;;;;5050242;28;20029;-69
2021/05/25 11:31:46;;;;;;;8.05;4.00;;;14.70;99.90;;;;;;5068492;28;20026;-70
2021/05/25 11:34:13;;;;;;;6.93;3.40;;;14.20;99.90;;;;;;5069794;28;20067;-69
2021/05/25 11:36:39;;;;;;;10.10;2.55;;;13.50;99.90;;;;;;5069846;28;20029;-69
2021/05/25 11:39:07;;;;;;;4.75;2.58;;;12.90;99.90;;;;;;5070119;28;20112;-69
2021/05/25 11:41:32;;;;;;;7.85;3.42;;;12.10;99.90;;;;;;5069953;28;20036;-69
2021/05/25 11:44:07;;;;;;;4.82;3.05;;;11.70;99.90;;;;;;5068844;28;20017;-69
2021/05/25 11:46:50;;;;;;;4.25;2.70;;;11.80;99.90;;;;;;5057784;28;20478;-69
2021/05/25 11:49:18;;;;;;;4.87;3.37;;;12.00;99.90;;;;;;5068538;28;20021;-69
2021/05/25 11:51:44;;;;;;;3.83;2.72;;;12.20;99.90;;;;;;5067962;28;20282;-69
2021/05/25 11:54:14;;;;;;;4.93;1.50;;;12.30;99.90;;;;;;5068423;28;20066;-70
2021/05/25 11:56:44;;;;;;;2.58;0.98;;;12.30;99.90;;;;;;5069787;28;20112;-69
2021/05/25 11:59:13;;;;;;;2.03;0.70;;;12.30;99.90;;;;;;5069479;28;20017;-69
2021/05/25 12:01:43;;;;;;;1.00;0.57;;;12.70;99.90;;;;;;5069143;28;20459;-69
2021/05/25 12:04:09;;;;;;;1.88;0.70;;;12.60;99.90;;;;;;5064466;28;20033;-69
2021/05/25 12:06:44;;;;;;;2.20;0.70;;;12.50;99.90;;;;;;5069228;28;20037;-69
2021/05/25 12:09:12;;;;;;;0.93;0.60;;;12.40;99.90;;;;;;5068497;28;20375;-69
2021/05/25 12:11:40;;;;;;;0.82;0.70;;;11.90;99.90;;;;;;5049493;28;20121;-69
2021/05/25 12:14:07;;;;;;;1.13;1.00;;;11.70;99.90;;;;;;5049460;28;20049;-69
2021/05/25 12:16:33;;;;;;;1.05;0.90;;;11.50;99.90;;;;;;5068945;28;20428;-69
2021/05/25 12:18:58;;;;;;;3.83;1.10;;;11.70;99.90;;;;;;5069365;28;20021;-69
2021/05/25 12:21:24;;;;;;;1.90;1.30;;;12.00;99.90;;;;;;5068876;28;20077;-69
2021/05/25 12:23:50;;;;;;;1.48;1.30;;;12.40;99.90;;;;;;5068848;28;20059;-69
2021/05/25 12:26:16;;;;;;;3.80;1.77;;;12.60;99.90;;;;;;5060628;28;20032;-69
2021/05/25 12:28:46;;;;;;;7.78;2.90;;;12.60;99.90;;;;;;5055612;28;20025;-69
2021/05/25 12:31:12;;;;;;;4.15;2.97;;;12.60;99.90;;;;;;5055510;28;20535;-69
2021/05/25 12:33:39;;;;;;;5.55;3.83;;;12.70;99.90;;;;;;5055261;28;20111;-69
2021/05/25 12:36:24;;;;;;;9.88;5.00;;;12.60;99.90;;;;;;5055306;28;20024;-69
2021/05/25 12:39:02;;;;;;;9.98;5.07;;;12.70;99.90;;;;;;5055461;28;20382;-69
2021/05/25 12:41:39;;;;;;;7.53;4.00;;;13.00;99.90;;;;;;5055321;28;20036;-69
2021/05/25 12:44:08;;;;;;;9.30;4.00;;;12.80;99.90;;;;;;5055464;28;20079;-69
2021/05/25 12:46:36;;;;;;;5.57;3.83;;;12.80;99.90;;;;;;5054099;28;20499;-69
2021/05/25 12:49:02;;;;;;;6.60;4.20;;;12.70;99.90;;;;;;5053029;28;20037;-69
2021/05/25 12:51:28;;;;;;;4.97;3.80;;;12.80;99.90;;;;;;5054489;28;20032;-69
2021/05/25 12:53:55;;;;;;;7.18;3.38;;;13.00;99.90;;;;;;5053646;28;20354;-69
2021/05/25 12:56:23;;;;;;;4.35;3.22;;;12.80;99.90;;;;;;5054203;28;20489;-69
2021/05/25 12:58:50;;;;;;;4.85;3.20;;;12.80;99.90;;;;;;5053479;28;20071;-69
2021/05/25 13:01:33;;;;;;;6.68;3.65;;;13.00;99.90;;;;;;5052770;28;20048;-69
2021/05/25 13:06:49;;;;;;;5.78;4.00;;;13.00;99.90;;;;;;5065464;28;20859;-69
2021/05/25 13:09:19;;;;;;;8.50;4.60;;;12.70;99.90;;;;;;5051383;28;20021;-69
2021/05/25 13:12:07;;;;;;;11.52;6.53;;;12.30;99.90;;;;;;5049330;28;20033;-69
2021/05/25 13:14:35;;;;;;;10.57;5.70;;;11.80;99.90;;;;;;5045332;28;20461;-69